Flight Track Log - Related Links

Times and Time Zones

All times are in EDT time to prevent confusion due to time zone crossing. See the THY7 flight status page for this flight to view local times or setup timezone preferences in your user account.

Time Position Orientation Groundspeed Altitude Reporting Facility
EDT Latitude Longitude Course Direction KTS MPH feet Rate Location/Type
Tue 07:13:00 AM 41.2138 28.4557 311° West  Level FlightAware Approximate
Tue 07:13:53 AM 41.1340 28.7610 310° West 254 292 4,200  Level FlightAware ADS-B
Tue 07:14:00 AM 41.2925 28.3334 311° West  Level FlightAware Approximate
Tue 07:15:00 AM 41.3711 28.2107 311° West  Level FlightAware Approximate
Tue 07:15:53 AM 41.2600 28.6540 327° Northwest 289 333 8,400  Level FlightAware ADS-B
Tue 07:16:00 AM 41.4496 28.0877 310° West  Level FlightAware Approximate
Tue 07:16:08 AM 41.2800 28.6370 327° Northwest 290 334 9,100  Level FlightAware ADS-B
Tue 07:16:28 AM 41.3000 28.6210 329° Northwest 289 333 9,800 2,000 Climbing FlightAware ADS-B
Tue 07:16:53 AM 41.3290 28.5960 327° Northwest 287 330 10,600 1,129 Climbing FlightAware ADS-B
Tue 07:17:53 AM 41.4010 28.5160 320° Northwest 361 415 11,400 1,188 Climbing FlightAware ADS-B
Tue 07:18:34 AM 41.4390 28.4410 304° West 372 428 12,600 2,025 Climbing FlightAware ADS-B
Tue 07:19:13 AM 41.4790 28.3630 304° West 377 434 14,100 2,071 Climbing FlightAware ADS-B
Tue 07:19:58 AM 41.5240 28.2770 305° West 390 449 15,500 2,000 Climbing FlightAware ADS-B
Tue 07:20:43 AM 41.5730 28.1840 305° West 396 456 17,100 2,100 Climbing FlightAware ADS-B
Tue 07:21:18 AM 41.6090 28.1130 304° West 396 456 18,300 1,673 Climbing FlightAware ADS-B
Tue 07:23:10 AM 41.7260 27.8870 305° West 417 480 21,200 1,524 Climbing FlightAware ADS-B
Tue 07:24:23 AM 41.8100 27.7230 305° West 427 491 23,000 1,488 Climbing FlightAware ADS-B
Tue 07:25:15 AM 41.8690 27.6060 304° West 430 495 24,300 1,304 Climbing FlightAware ADS-B
Tue 07:25:55 AM 41.9090 27.5270 304° West 436 502 25,000 1,097 Climbing FlightAware ADS-B
Tue 07:26:48 AM 41.9780 27.4090 308° West 452 520 26,000 1,085 Climbing FlightAware ADS-B
Tue 07:27:29 AM 42.0400 27.3200 313° West 457 526 26,700 1,041 Climbing FlightAware ADS-B
Tue 07:28:26 AM 42.1170 27.2100 313° West 460 529 27,700 1,010 Climbing FlightAware ADS-B
Tue 07:29:10 AM 42.1840 27.1130 313° West 467 537 28,400 940 Climbing FlightAware ADS-B
Tue 07:29:49 AM 42.2400 27.0340 314° West 470 541 29,000 993 Climbing FlightAware ADS-B
Tue 07:31:35 AM 42.3740 26.8400 313° West 460 529 30,800 1,074 Climbing FlightAware ADS-B
Tue 07:32:31 AM 42.4780 26.6890 313° West 463 533 31,900 1,000 Climbing FlightAware ADS-B
Tue 07:33:11 AM 42.5420 26.5950 313° West 462 532 32,400 750 Climbing FlightAware ADS-B
Tue 07:33:51 AM 42.6010 26.5090 313° West 463 533 32,900 975 Climbing FlightAware ADS-B
Tue 07:34:31 AM 42.6580 26.4250 313° West 457 526 33,700 776 Climbing FlightAware ADS-B
Tue 07:35:16 AM 42.7210 26.3320 313° West 452 520 34,000 209 Climbing FlightAware ADS-B
Tue 07:35:57 AM 42.7800 26.2450 313° West 456 525 34,000  Level FlightAware ADS-B
Tue 07:36:40 AM 42.8400 26.1560 313° West 459 528 34,000  Level FlightAware ADS-B
Tue 07:37:20 AM 42.8970 26.0710 312° West 458 527 34,000  Level FlightAware ADS-B
Tue 07:38:00 AM 42.9570 25.9820 313° West 458 527 34,000  Level FlightAware ADS-B
Tue 07:38:40 AM 43.0120 25.9000 313° West 460 529 34,000  Level FlightAware ADS-B
Tue 07:39:43 AM 43.1040 25.7610 312° West 463 533 34,000  Level FlightAware ADS-B
Tue 07:40:24 AM 43.1580 25.6800 312° West 464 534 34,000  Level FlightAware ADS-B
Tue 07:41:08 AM 43.2280 25.5750 312° West 463 533 34,000  Level FlightAware ADS-B
Tue 07:41:48 AM 43.2840 25.4890 312° West 460 529 34,000  Level FlightAware ADS-B
Tue 07:42:29 AM 43.3420 25.4010 312° West 461 531 34,000  Level FlightAware ADS-B
Tue 07:43:13 AM 43.4040 25.3070 312° West 463 533 34,000  Level FlightAware ADS-B
Tue 07:43:54 AM 43.4630 25.2160 312° West 461 531 34,000  Level FlightAware ADS-B
Tue 07:44:28 AM 43.5120 25.1410 312° West 458 527 34,000  Level FlightAware ADS-B
Tue 07:45:13 AM 43.5750 25.0450 312° West 455 524 34,000  Level FlightAware ADS-B
Tue 07:45:53 AM 43.6300 24.9590 311° West 455 524 34,000  Level FlightAware ADS-B
Tue 07:46:43 AM 43.7000 24.8490 311° West 450 518 34,000  Level FlightAware ADS-B
Tue 07:47:23 AM 43.7560 24.7610 311° West 453 521 34,000  Level FlightAware ADS-B
Tue 07:48:08 AM 43.8180 24.6650 312° West 460 529 34,000  Level FlightAware ADS-B
Tue 07:48:38 AM 43.8610 24.5970 311° West 464 534 34,000  Level FlightAware ADS-B
Tue 07:49:23 AM 43.9250 24.4960 311° West 464 534 34,000  Level FlightAware ADS-B
Tue 07:50:03 AM 43.9790 24.4090 311° West 462 532 34,000  Level FlightAware ADS-B
Tue 07:50:43 AM 44.0380 24.3170 312° West 455 524 34,000  Level FlightAware ADS-B
Tue 07:51:28 AM 44.0980 24.2210 311° West 448 516 34,000  Level FlightAware ADS-B
Tue 07:52:08 AM 44.1500 24.1370 311° West 449 517 34,000  Level FlightAware ADS-B
Tue 07:52:53 AM 44.2120 24.0370 311° West 450 518 34,000  Level FlightAware ADS-B
Tue 07:53:28 AM 44.2620 23.9570 311° West 453 521 34,000  Level FlightAware ADS-B
Tue 07:54:08 AM 44.3110 23.8770 311° West 458 527 34,000  Level FlightAware ADS-B
Tue 07:54:48 AM 44.3670 23.7870 311° West 461 531 34,000  Level FlightAware ADS-B
Tue 07:55:33 AM 44.4320 23.6810 311° West 463 533 34,000  Level FlightAware ADS-B
Tue 07:56:13 AM 44.4870 23.5920 311° West 465 535 34,000  Level FlightAware ADS-B
Tue 07:56:54 AM 44.5410 23.5030 310° West 462 532 34,000  Level FlightAware ADS-B
Tue 07:57:42 AM 44.6090 23.3920 311° West 456 525 34,000  Level FlightAware ADS-B
Tue 07:58:18 AM 44.6580 23.3120 311° West 459 528 34,000  Level FlightAware ADS-B
Tue 07:59:07 AM 44.7250 23.1990 310° West 461 531 34,000  Level FlightAware ADS-B
Tue 07:59:44 AM 44.7740 23.1180 310° West 462 532 34,000  Level FlightAware ADS-B
Tue 08:00:21 AM 44.8250 23.0330 310° West 462 532 34,000  Level FlightAware ADS-B
Tue 08:01:10 AM 44.8870 22.9300 310° West 464 534 34,000  Level FlightAware ADS-B
Tue 08:01:50 AM 44.9450 22.8330 310° West 466 536 34,000  Level FlightAware ADS-B
Tue 08:02:32 AM 45.0100 22.7230 310° West 467 537 34,000  Level FlightAware ADS-B
Tue 08:03:14 AM 45.0670 22.6270 310° West 464 534 34,000  Level FlightAware ADS-B
Tue 08:03:56 AM 45.1250 22.5290 310° West 464 534 34,000  Level FlightAware ADS-B
Tue 08:04:39 AM 45.1830 22.4300 310° West 463 533 34,000  Level FlightAware ADS-B
Tue 08:05:15 AM 45.2320 22.3460 310° West 462 532 34,000  Level FlightAware ADS-B
Tue 08:05:56 AM 45.2860 22.2550 310° West 460 529 34,000  Level FlightAware ADS-B
Tue 08:06:38 AM 45.3470 22.1490 309° West 461 531 34,000  Level FlightAware ADS-B
Tue 08:07:26 AM 45.4110 22.0390 310° West 461 531 34,000  Level FlightAware ADS-B
Tue 08:08:07 AM 45.4610 21.9520 309° West 457 526 34,000  Level FlightAware ADS-B
Tue 08:08:49 AM 45.5220 21.8470 310° West 457 526 34,000  Level FlightAware ADS-B
Tue 08:09:25 AM 45.5660 21.7700 309° West 458 527 34,000  Level FlightAware ADS-B
Tue 08:10:11 AM 45.6360 21.6480 309° West 459 528 34,000  Level FlightAware ADS-B
Tue 08:10:55 AM 45.6950 21.5440 309° West 457 526 34,000  Level FlightAware ADS-B
Tue 08:11:33 AM 45.7460 21.4540 309° West 455 524 34,000  Level FlightAware ADS-B
Tue 08:12:18 AM 45.8040 21.3510 309° West 455 524 34,000  Level FlightAware ADS-B
Tue 08:12:59 AM 45.8590 21.2550 309° West 454 522 34,000  Level FlightAware ADS-B
Tue 08:13:41 AM 45.9150 21.1550 309° West 455 524 34,000  Level FlightAware ADS-B
Tue 08:14:25 AM 45.9740 21.0490 309° West 454 522 34,000  Level FlightAware ADS-B
Tue 08:15:05 AM 46.0230 20.9610 309° West 451 519 34,000  Level FlightAware ADS-B
Tue 08:15:45 AM 46.0720 20.8670 307° West 453 521 34,000  Level FlightAware ADS-B
Tue 08:16:29 AM 46.1270 20.7540 305° West 450 518 34,000  Level FlightAware ADS-B
Tue 08:17:05 AM 46.1690 20.6700 306° West 451 519 34,000  Level FlightAware ADS-B
Tue 08:17:50 AM 46.2260 20.5540 305° West 451 519 34,000  Level FlightAware ADS-B
Tue 08:18:30 AM 46.2750 20.4560 306° West 453 521 34,000  Level FlightAware ADS-B
Tue 08:19:10 AM 46.3240 20.3560 305° West 454 522 34,000  Level FlightAware ADS-B
Tue 08:19:55 AM 46.3790 20.2440 305° West 453 521 34,000  Level FlightAware ADS-B
Tue 08:20:35 AM 46.4280 20.1440 305° West 455 524 34,000  Level FlightAware ADS-B
Tue 08:21:16 AM 46.4780 20.0430 306° West 455 524 34,000  Level FlightAware ADS-B
Tue 08:22:00 AM 46.5310 19.9320 305° West 457 526 34,000  Level FlightAware ADS-B
Tue 08:22:40 AM 46.5810 19.8300 306° West 456 525 34,000  Level FlightAware ADS-B
Tue 08:23:20 AM 46.6310 19.7270 305° West 455 524 34,000  Level FlightAware ADS-B
Tue 08:24:00 AM 46.6780 19.6270 304° West 458 527 34,000  Level FlightAware ADS-B
Tue 08:24:40 AM 46.7270 19.5250 305° West 457 526 34,000  Level FlightAware ADS-B
Tue 08:25:19 AM 46.7730 19.4310 306° West 459 528 34,000  Level FlightAware ADS-B
Tue 08:25:56 AM 46.8190 19.3330 304° West 459 528 34,000  Level FlightAware ADS-B
Tue 08:26:35 AM 46.8650 19.2350 304° West 459 528 34,000  Level FlightAware ADS-B
Tue 08:27:20 AM 46.9190 19.1210 305° West 458 527 34,000  Level FlightAware ADS-B
Tue 08:28:05 AM 46.9730 19.0050 304° West 456 525 34,000  Level FlightAware ADS-B
Tue 08:28:45 AM 47.0210 18.9030 305° West 456 525 34,000  Level FlightAware ADS-B
Tue 08:29:25 AM 47.0690 18.8010 305° West 454 522 34,000  Level FlightAware ADS-B
Tue 08:30:05 AM 47.1160 18.6990 304° West 454 522 34,000  Level FlightAware ADS-B
Tue 08:30:49 AM 47.1690 18.5850 304° West 456 525 34,000  Level FlightAware ADS-B
Tue 08:31:30 AM 47.2160 18.4850 305° West 456 525 34,000  Level FlightAware ADS-B
Tue 08:32:10 AM 47.2640 18.3800 304° West 456 525 34,000  Level FlightAware ADS-B
Tue 08:32:55 AM 47.3170 18.2640 304° West 456 525 34,000  Level FlightAware ADS-B
Tue 08:33:34 AM 47.3620 18.1640 304° West 451 519 34,000  Level FlightAware ADS-B
Tue 08:34:14 AM 47.4100 18.0600 304° West 451 519 34,000  Level FlightAware ADS-B
Tue 08:34:59 AM 47.4620 17.9440 304° West 450 518 34,000  Level FlightAware ADS-B
Tue 08:35:44 AM 47.5140 17.8290 304° West 451 519 34,000  Level FlightAware ADS-B
Tue 08:36:24 AM 47.5610 17.7240 304° West 451 519 34,000  Level FlightAware ADS-B
Tue 08:37:08 AM 47.6110 17.6110 303° West 451 519 34,000  Level FlightAware ADS-B
Tue 08:37:51 AM 47.6610 17.4990 304° West 454 522 34,000  Level FlightAware ADS-B
Tue 08:38:33 AM 47.7110 17.3870 304° West 454 522 34,000  Level FlightAware ADS-B
Tue 08:39:31 AM 47.7770 17.2360 303° West 449 517 34,000  Level FlightAware ADS-B
Tue 08:40:07 AM 47.8160 17.1460 303° West 450 518 34,000  Level FlightAware ADS-B
Tue 08:40:51 AM 47.8540 17.0290 296° West 460 529 34,000  Level FlightAware ADS-B
Tue 08:41:31 AM 47.8880 16.9050 292° West 463 533 34,000  Level FlightAware ADS-B
Tue 08:42:16 AM 47.9290 16.7680 294° West 461 531 34,000  Level FlightAware ADS-B
Tue 08:42:59 AM 47.9660 16.6440 294° West 459 528 34,000  Level FlightAware ADS-B
Tue 08:43:42 AM 48.0030 16.5210 294° West 458 527 34,000  Level FlightAware ADS-B
Tue 08:44:17 AM 48.0320 16.4210 293° West 458 527 34,000  Level FlightAware ADS-B
Tue 08:45:00 AM 48.0690 16.2970 294° West 459 528 34,000  Level FlightAware ADS-B
Tue 08:45:39 AM 48.1030 16.1810 294° West 459 528 34,000  Level FlightAware ADS-B
Tue 08:46:20 AM 48.1370 16.0640 294° West 459 528 34,000  Level FlightAware ADS-B
Tue 08:46:56 AM 48.1680 15.9550 293° West 461 531 34,000  Level FlightAware ADS-B
Tue 08:47:41 AM 48.2070 15.8220 294° West 461 531 34,000  Level FlightAware ADS-B
Tue 08:48:16 AM 48.2340 15.7270 293° West 461 531 34,000  Level FlightAware ADS-B
Tue 08:48:56 AM 48.2690 15.6040 293° West 461 531 34,000  Level FlightAware ADS-B
Tue 08:49:33 AM 48.3000 15.4940 293° West 461 531 34,000  Level FlightAware ADS-B
Tue 08:50:09 AM 48.3300 15.3880 293° West 462 532 34,000  Level FlightAware ADS-B
Tue 08:50:50 AM 48.3640 15.2680 293° West 462 532 34,000  Level FlightAware ADS-B
Tue 08:51:36 AM 48.4030 15.1290 293° West 460 529 34,000  Level FlightAware ADS-B
Tue 08:52:17 AM 48.4350 15.0130 293° West 461 531 34,000  Level FlightAware ADS-B
Tue 08:53:00 AM 48.4700 14.8870 293° West 461 531 34,000  Level FlightAware ADS-B
Tue 08:53:45 AM 48.5080 14.7510 293° West 460 529 34,000  Level FlightAware ADS-B
Tue 08:54:27 AM 48.5400 14.6320 292° West 460 529 34,000  Level FlightAware ADS-B
Tue 08:55:04 AM 48.5710 14.5170 292° West 460 529 34,000  Level FlightAware ADS-B
Tue 08:55:41 AM 48.6010 14.4070 292° West 460 529 34,000  Level FlightAware ADS-B
Tue 08:56:22 AM 48.6340 14.2860 292° West 461 531 34,000  Level FlightAware ADS-B
Tue 08:57:07 AM 48.6700 14.1520 292° West 461 531 34,000  Level FlightAware ADS-B
Tue 08:57:49 AM 48.7040 14.0260 292° West 462 532 34,000  Level FlightAware ADS-B
Tue 08:58:31 AM 48.7380 13.8980 292° West 459 528 34,000  Level FlightAware ADS-B
Tue 08:59:11 AM 48.7690 13.7800 292° West 460 529 34,000  Level FlightAware ADS-B
Tue 08:59:55 AM 48.8080 13.6540 295° West 456 525 34,000  Level FlightAware ADS-B
Tue 09:00:25 AM 48.8420 13.5740 303° West 454 522 34,000  Level FlightAware ADS-B
Tue 09:01:13 AM 48.9050 13.4550 309° West 454 522 34,000  Level FlightAware ADS-B
Tue 09:01:52 AM 48.9560 13.3590 309° West 455 524 34,000  Level FlightAware ADS-B
Tue 09:02:37 AM 49.0140 13.2470 308° West 453 521 34,000  Level FlightAware ADS-B
Tue 09:03:19 AM 49.0690 13.1410 308° West 454 522 34,000  Level FlightAware ADS-B
Tue 09:04:01 AM 49.1240 13.0340 308° West 455 524 34,000  Level FlightAware ADS-B
Tue 09:05:10 AM 49.2130 12.8610 308° West 455 524 34,000  Level FlightAware ADS-B
Tue 09:05:53 AM 49.2690 12.7520 308° West 453 521 34,000  Level FlightAware ADS-B
Tue 09:06:33 AM 49.3190 12.6530 308° West 453 521 34,000  Level FlightAware ADS-B
Tue 09:07:12 AM 49.3710 12.5510 308° West 453 521 34,000  Level FlightAware ADS-B
Tue 09:07:56 AM 49.4270 12.4400 308° West 452 520 34,000  Level FlightAware ADS-B
Tue 09:08:40 AM 49.4810 12.3330 308° West 452 520 34,000  Level FlightAware ADS-B
Tue 09:09:16 AM 49.5270 12.2400 307° West 452 520 34,000  Level FlightAware ADS-B
Tue 09:10:03 AM 49.5850 12.1250 308° West 453 521 34,000  Level FlightAware ADS-B
Tue 09:10:43 AM 49.6370 12.0200 307° West 453 521 34,000  Level FlightAware ADS-B
Tue 09:11:26 AM 49.6770 11.9390 307° West 453 521 34,000  Level FlightAware ADS-B
Tue 09:12:23 AM 49.7440 11.8030 307° West 452 520 34,000  Level FlightAware ADS-B
Tue 09:13:04 AM 49.8190 11.6500 307° West 452 520 34,000  Level FlightAware ADS-B
Tue 09:13:47 AM 49.8720 11.5430 308° West 454 522 34,000  Level FlightAware ADS-B
Tue 09:14:28 AM 49.9230 11.4370 307° West 455 524 34,000  Level FlightAware ADS-B
Tue 09:15:08 AM 49.9740 11.3320 307° West 454 522 34,000  Level FlightAware ADS-B
Tue 09:15:53 AM 50.0290 11.2170 307° West 453 521 34,000  Level FlightAware ADS-B
Tue 09:16:28 AM 50.0740 11.1240 307° West 453 521 34,000  Level FlightAware ADS-B
Tue 09:17:08 AM 50.1230 11.0210 307° West 453 521 34,000  Level FlightAware ADS-B
Tue 09:17:52 AM 50.1750 10.9110 306° West 449 517 34,000  Level FlightAware ADS-B
Tue 09:18:29 AM 50.2250 10.8060 307° West 454 522 34,000  Level FlightAware ADS-B
Tue 09:19:13 AM 50.2800 10.6910 307° West 455 524 34,000  Level FlightAware ADS-B
Tue 09:19:53 AM 50.3280 10.5880 306° West 455 524 34,000  Level FlightAware ADS-B
Tue 09:20:36 AM 50.3850 10.4680 307° West 454 522 34,000  Level FlightAware ADS-B
Tue 09:21:14 AM 50.4310 10.3680 306° West 455 524 34,000  Level FlightAware ADS-B
Tue 09:21:52 AM 50.4760 10.2710 306° West 456 525 34,000  Level FlightAware ADS-B
Tue 09:22:38 AM 50.5340 10.1460 306° West 455 524 34,000  Level FlightAware ADS-B
Tue 09:23:26 AM 50.5920 10.0190 306° West 456 525 34,000  Level FlightAware ADS-B
Tue 09:24:06 AM 50.6400 9.9160 306° West 456 525 34,000  Level FlightAware ADS-B
Tue 09:24:53 AM 50.7000 9.7840 306° West 455 524 34,000  Level FlightAware ADS-B
Tue 09:25:29 AM 50.7460 9.6830 306° West 455 524 34,000  Level FlightAware ADS-B
Tue 09:26:09 AM 50.7930 9.5790 306° West 454 522 34,000  Level FlightAware ADS-B
Tue 09:26:55 AM 50.8500 9.4530 306° West 455 524 34,000  Level FlightAware ADS-B
Tue 09:27:37 AM 50.9000 9.3420 306° West 454 522 34,000  Level FlightAware ADS-B
Tue 09:28:18 AM 50.9480 9.2340 305° West 454 522 34,000  Level FlightAware ADS-B
Tue 09:28:57 AM 50.9960 9.1260 305° West 453 521 34,000  Level FlightAware ADS-B
Tue 09:29:41 AM 51.0500 9.0010 305° West 453 521 34,000  Level FlightAware ADS-B
Tue 09:30:32 AM 51.0880 8.9020 301° West 454 522 34,000  Level FlightAware ADS-B
Tue 09:31:55 AM 51.1820 8.6670 303° West 457 526 34,000  Level FlightAware ADS-B
Tue 09:32:45 AM 51.2550 8.4820 302° West 457 526 34,000  Level FlightAware ADS-B
Tue 09:33:27 AM 51.3010 8.3640 302° West 456 525 34,000  Level FlightAware ADS-B
Tue 09:34:09 AM 51.3490 8.2410 302° West 457 526 34,000  Level FlightAware ADS-B
Tue 09:34:48 AM 51.3920 8.1330 303° West 456 525 34,000  Level FlightAware ADS-B
Tue 09:35:33 AM 51.4420 8.0030 302° West 456 525 34,000  Level FlightAware ADS-B
Tue 09:36:15 AM 51.4890 7.8800 302° West 455 524 34,000  Level FlightAware ADS-B
Tue 09:36:59 AM 51.5380 7.7540 302° West 454 522 34,000  Level FlightAware ADS-B
Tue 09:37:39 AM 51.5810 7.6400 301° West 455 524 34,000  Level FlightAware ADS-B
Tue 09:38:17 AM 51.6240 7.5290 302° West 454 522 34,000  Level FlightAware ADS-B
Tue 09:38:57 AM 51.6670 7.4140 301° West 454 522 34,000  Level FlightAware ADS-B
Tue 09:39:45 AM 51.7200 7.2750 302° West 454 522 34,000  Level FlightAware ADS-B
Tue 09:40:22 AM 51.7590 7.1710 301° West 455 524 34,000  Level FlightAware ADS-B
Tue 09:41:09 AM 51.8100 7.0330 301° West 456 525 34,000  Level FlightAware ADS-B
Tue 09:41:45 AM 51.8490 6.9290 301° West 455 524 34,000  Level FlightAware ADS-B
Tue 09:42:25 AM 51.8920 6.8110 301° West 455 524 34,000  Level FlightAware ADS-B
Tue 09:43:07 AM 51.9380 6.6880 301° West 453 521 34,000  Level FlightAware ADS-B
Tue 09:43:39 AM 51.9720 6.5960 301° West 453 521 34,000  Level FlightAware ADS-B
Tue 09:44:23 AM 52.0190 6.4670 301° West 452 520 34,000  Level FlightAware ADS-B
Tue 09:45:07 AM 52.0650 6.3400 301° West 454 522 34,000  Level FlightAware ADS-B
Tue 09:45:49 AM 52.1090 6.2150 300° West 452 520 34,000  Level FlightAware ADS-B
Tue 09:46:33 AM 52.1500 6.0820 297° West 452 520 34,000  Level FlightAware ADS-B
Tue 09:47:13 AM 52.1880 5.9590 297° West 453 521 34,000  Level FlightAware ADS-B
Tue 09:47:49 AM 52.2230 5.8500 298° West 454 522 34,000 79 Level FlightAware ADS-B
Tue 09:48:29 AM 52.2610 5.7290 297° West 453 521 34,100 329 Climbing FlightAware ADS-B
Tue 09:49:02 AM 52.2991 5.6310 297° West 474 545 34,400 545 Climbing FlightAware UK
Tue 09:49:13 AM 52.3020 5.5960 297° West 454 522 34,500 766 Climbing FlightAware ADS-B
Tue 09:49:49 AM 52.3370 5.4860 298° West 453 521 35,000 800 Climbing FlightAware ADS-B
Tue 09:50:28 AM 52.3720 5.3710 297° West 451 519 35,500 714 Climbing FlightAware ADS-B
Tue 09:51:13 AM 52.4160 5.2290 297° West 448 516 36,000 375 Climbing FlightAware ADS-B
Tue 09:51:48 AM 52.4460 5.1300 296° West 450 518 36,000  Level FlightAware ADS-B
Tue 09:52:29 AM 52.4840 5.0050 297° West 449 517 36,000  Level FlightAware ADS-B
Tue 09:53:02 AM 52.5182 4.8998 297° West 470 541 36,000  Level FlightAware UK
Tue 09:53:09 AM 52.5210 4.8840 297° West 449 517 36,000  Level FlightAware ADS-B
Tue 09:53:45 AM 52.5540 4.7730 296° West 449 517 36,000  Level FlightAware ADS-B
Tue 09:54:29 AM 52.5930 4.6450 297° West 449 517 36,000  Level FlightAware ADS-B
Tue 09:55:09 AM 52.6310 4.5170 296° West 450 518 36,000  Level FlightAware ADS-B
Tue 09:55:49 AM 52.6670 4.3960 296° West 450 518 36,000  Level FlightAware ADS-B
Tue 09:56:32 AM 52.7060 4.2630 296° West 450 518 36,000  Level FlightAware ADS-B
Tue 09:57:13 AM 52.7450 4.1290 296° West 450 518 36,000  Level FlightAware ADS-B
Tue 09:57:55 AM 52.7830 3.9990 296° West 450 518 36,000  Level FlightAware ADS-B
Tue 09:58:39 AM 52.8230 3.8630 296° West 449 517 36,000  Level FlightAware ADS-B
Tue 09:59:19 AM 52.8540 3.7370 292° West 439 505 36,000  Level FlightAware ADS-B
Tue 10:00:03 AM 52.8780 3.6000 286° West 440 506 36,000  Level FlightAware ADS-B
Tue 10:00:43 AM 52.9020 3.4710 287° West 440 506 36,000  Level FlightAware ADS-B
Tue 10:01:21 AM 52.9240 3.3450 286° West 439 505 36,000  Level FlightAware ADS-B
Tue 10:02:09 AM 52.9510 3.1940 287° West 437 503 36,000  Level FlightAware ADS-B
Tue 10:02:45 AM 52.9720 3.0760 287° West 437 503 36,000  Level FlightAware ADS-B
Tue 10:03:25 AM 52.9940 2.9480 286° West 438 504 36,000  Level FlightAware ADS-B
Tue 10:04:09 AM 53.0190 2.8050 286° West 438 504 36,000  Level FlightAware ADS-B
Tue 10:04:43 AM 53.0380 2.6970 286° West 438 504 36,000  Level FlightAware ADS-B
Tue 10:05:19 AM 53.0582 2.5758 286° West 470 541 36,000  Level FlightAware UK
Tue 10:05:23 AM 53.0600 2.5680 286° West 437 503 36,000  Level FlightAware ADS-B
Tue 10:05:55 AM 53.0780 2.4594 286° West 470 541 36,000  Level FlightAware UK
Tue 10:06:07 AM 53.0840 2.4250 286° West 436 502 36,000  Level FlightAware ADS-B
Tue 10:06:47 AM 53.1060 2.2970 286° West 435 501 36,000  Level FlightAware ADS-B
Tue 10:07:27 AM 53.1270 2.1700 285° West 435 501 36,000  Level FlightAware ADS-B
Tue 10:07:59 AM 53.1450 2.0660 286° West 435 501 36,000  Level FlightAware ADS-B
Tue 10:08:16 AM 53.1544 2.0066 285° West 437 503 36,000  Level FlightAware ADS-B
Tue 10:08:49 AM 53.1716 1.9008 285° West 470 541 36,000  Level FlightAware UK
Tue 10:08:52 AM 53.1734 1.8915 285° West 437 503 36,000  Level FlightAware ADS-B
Tue 10:09:24 AM 53.1903 1.7884 285° West 437 503 36,000  Level FlightAware ADS-B
Tue 10:10:00 AM 53.2092 1.6723 285° West 437 503 36,000  Level FlightAware ADS-B
Tue 10:10:38 AM 53.2290 1.5499 285° West 437 503 36,000  Level FlightAware ADS-B
Tue 10:11:08 AM 53.2451 1.4501 285° West 437 503 36,000  Level FlightAware ADS-B
Tue 10:11:38 AM 53.2607 1.3525 285° West 437 503 36,000  Level FlightAware ADS-B
Tue 10:12:11 AM 53.2776 1.2457 285° West 436 502 36,000  Level FlightAware ADS-B
Tue 10:13:13 AM 53.3092 1.0451 285° West 438 504 36,000  Level FlightAware ADS-B
Tue 10:13:52 AM 53.3281 0.9164 284° West 439 505 36,000  Level FlightAware ADS-B
Tue 10:14:37 AM 53.3440 0.7710 280° West 433 498 36,000  Level FlightAware ADS-B
Tue 10:14:59 AM 53.3513 0.6978 280° West 434 499 36,000  Level FlightAware ADS-B
Tue 10:15:32 AM 53.3627 0.5863 280° West 432 497 36,000  Level FlightAware ADS-B
Tue 10:16:04 AM 53.3730 0.4832 280° West 433 498 36,000  Level FlightAware ADS-B
Tue 10:16:40 AM 53.3850 0.3629 280° West 434 499 36,000  Level FlightAware ADS-B
Tue 10:17:14 AM 53.3959 0.2518 279° West 433 498 36,000  Level FlightAware ADS-B
Tue 10:17:44 AM 53.4057 0.1520 279° West 432 497 36,000  Level FlightAware ADS-B
Tue 10:18:14 AM 53.4149 0.0571 279° West 432 497 36,000  Level FlightAware ADS-B
Tue 10:18:44 AM 53.4246 -0.0455 279° West 433 498 36,000  Level FlightAware ADS-B
Tue 10:19:17 AM 53.4351 -0.1551 279° West 434 499 36,000  Level FlightAware ADS-B
Tue 10:19:49 AM 53.4448 -0.2614 279° West 435 501 36,000  Level FlightAware ADS-B
Tue 10:20:34 AM 53.4576 -0.4091 278° West 437 503 36,000  Level FlightAware ADS-B
Tue 10:21:21 AM 53.4781 -0.5664 282° West 440 506 36,000  Level FlightAware ADS-B
Tue 10:21:53 AM 53.4927 -0.6746 283° West 442 509 36,000  Level FlightAware ADS-B
Tue 10:22:26 AM 53.5071 -0.7828 283° West 442 509 36,000  Level FlightAware ADS-B
Tue 10:23:32 AM 53.5360 -1.0010 283° West 441 507 36,000  Level FlightAware ADS-B
Tue 10:24:03 AM 53.5493 -1.1079 282° West 443 510 36,000  Level FlightAware ADS-B
Tue 10:24:35 AM 53.5628 -1.2138 282° West 443 510 36,000  Level FlightAware ADS-B
Tue 10:25:06 AM 53.5757 -1.3177 282° West 442 509 36,000  Level FlightAware ADS-B
Tue 10:25:24 AM 53.5837 -1.3786 283° West 444 511 36,000  Level FlightAware ADS-B
Tue 10:26:24 AM 53.6183 -1.5789 286° West 446 513 36,000  Level FlightAware ADS-B
Tue 10:26:56 AM 53.6359 -1.6856 286° West 449 517 36,000  Level FlightAware ADS-B
Tue 10:27:27 AM 53.6531 -1.7918 285° West 450 518 36,000  Level FlightAware ADS-B
Tue 10:27:57 AM 53.6692 -1.8925 285° West 450 518 36,000  Level FlightAware ADS-B
Tue 10:28:29 AM 53.6863 -1.9998 285° West 451 519 36,000  Level FlightAware ADS-B
Tue 10:29:03 AM 53.7047 -2.1158 285° West 453 521 36,000  Level FlightAware ADS-B
Tue 10:29:49 AM 53.7291 -2.2715 285° West 454 522 36,000  Level FlightAware ADS-B
Tue 10:31:52 AM 53.7943 -2.6933 285° West 470 541 36,000  Level FlightAware UK
Tue 10:31:58 AM 53.7890 -2.6620 285° West 453 521 36,000  Level FlightAware ADS-B
Tue 10:32:37 AM 53.8160 -2.8360 285° West 455 524 36,000  Level FlightAware ADS-B
Tue 10:33:17 AM 53.8370 -2.9770 284° West 453 521 36,000  Level FlightAware ADS-B
Tue 10:33:55 AM 53.8570 -3.1090 284° West 452 520 36,000  Level FlightAware ADS-B
Tue 10:34:27 AM 53.8730 -3.2200 284° West 453 521 36,000  Level FlightAware ADS-B
Tue 10:35:05 AM 53.8930 -3.3540 284° West 455 524 36,000  Level FlightAware ADS-B
Tue 10:35:43 AM 53.9110 -3.4790 284° West 456 525 36,000  Level FlightAware ADS-B
Tue 10:36:30 AM 53.9340 -3.6410 284° West 457 526 36,000  Level FlightAware ADS-B
Tue 10:37:11 AM 53.9590 -3.7840 287° West 462 532 36,000  Level FlightAware ADS-B
Tue 10:37:51 AM 53.9940 -3.9150 294° West 462 532 36,000  Level FlightAware ADS-B
Tue 10:38:31 AM 54.0370 -4.0350 301° West 464 534 36,000  Level FlightAware ADS-B
Tue 10:39:11 AM 54.0850 -4.1610 303° West 463 533 36,000  Level FlightAware ADS-B
Tue 10:39:51 AM 54.1310 -4.2850 302° West 461 531 36,000  Level FlightAware ADS-B
Tue 10:40:37 AM 54.1830 -4.4270 302° West 463 533 36,000  Level FlightAware ADS-B
Tue 10:41:15 AM 54.2250 -4.5500 300° West 462 532 36,000  Level FlightAware ADS-B
Tue 10:42:01 AM 54.2610 -4.7070 291° West 455 524 36,000  Level FlightAware ADS-B
Tue 10:42:41 AM 54.2890 -4.8340 291° West 454 522 36,000  Level FlightAware ADS-B
Tue 10:43:15 AM 54.3130 -4.9480 290° West 452 520 36,000  Level FlightAware ADS-B
Tue 10:43:53 AM 54.3430 -5.0820 291° West 451 519 36,000  Level FlightAware ADS-B
Tue 10:44:39 AM 54.3740 -5.2290 290° West 450 518 36,000  Level FlightAware ADS-B
Tue 10:45:20 AM 54.4040 -5.3690 290° West 451 519 36,000  Level FlightAware ADS-B
Tue 10:45:55 AM 54.4290 -5.4860 290° West 450 518 36,000  Level FlightAware ADS-B
Tue 10:46:35 AM 54.4580 -5.6240 290° West 449 517 36,000  Level FlightAware ADS-B
Tue 10:47:15 AM 54.4850 -5.7550 290° West 449 517 36,000  Level FlightAware ADS-B
Tue 10:47:59 AM 54.5160 -5.9010 290° West 449 517 36,000  Level FlightAware ADS-B
Tue 10:48:43 AM 54.5460 -6.0480 289° West 450 518 36,000  Level FlightAware ADS-B
Tue 10:49:23 AM 54.5740 -6.1820 290° West 451 519 36,000  Level FlightAware ADS-B
Tue 10:50:08 AM 54.6060 -6.3380 290° West 453 521 36,000  Level FlightAware ADS-B
Tue 10:50:38 AM 54.6260 -6.4410 289° West 454 522 36,000  Level FlightAware ADS-B
Tue 10:51:24 AM 54.6570 -6.5940 289° West 454 522 36,000  Level FlightAware ADS-B
Tue 10:52:03 AM 54.6840 -6.7300 289° West 453 521 36,000  Level FlightAware ADS-B
Tue 10:52:43 AM 54.7120 -6.8680 289° West 452 520 36,000  Level FlightAware ADS-B
Tue 10:53:23 AM 54.7380 -7.0020 289° West 450 518 36,000  Level FlightAware ADS-B
Tue 10:54:04 AM 54.7660 -7.1410 289° West 452 520 36,000  Level FlightAware ADS-B
Tue 10:54:48 AM 54.7950 -7.2940 288° West 454 522 36,000  Level FlightAware ADS-B
Tue 10:55:29 AM 54.8220 -7.4330 289° West 455 524 36,000  Level FlightAware ADS-B
Tue 10:56:08 AM 54.8480 -7.5700 288° West 458 527 36,000  Level FlightAware ADS-B
Tue 10:56:53 AM 54.8780 -7.7260 289° West 457 526 36,000  Level FlightAware ADS-B
Tue 10:57:28 AM 54.9010 -7.8490 288° West 453 521 36,000  Level FlightAware ADS-B
Tue 10:58:08 AM 54.9270 -7.9850 288° West 447 514 36,000  Level FlightAware ADS-B
Tue 10:58:53 AM 54.9560 -8.1410 288° West 443 510 36,000  Level FlightAware ADS-B
Tue 10:59:28 AM 54.9770 -8.2590 287° West 444 511 36,000  Level FlightAware ADS-B
Tue 11:00:08 AM 55.0030 -8.3970 288° West 444 511 36,000  Level FlightAware ADS-B
Tue 11:00:48 AM 55.0270 -8.5330 287° West 444 511 36,000  Level FlightAware ADS-B
Tue 11:01:29 AM 55.0520 -8.6700 288° West 444 511 36,000  Level FlightAware ADS-B
Tue 11:02:19 AM 55.0830 -8.8410 288° West 446 513 36,000  Level FlightAware ADS-B
Tue 11:02:58 AM 55.1070 -8.9760 287° West 444 511 36,000  Level FlightAware ADS-B
Tue 11:03:38 AM 55.1310 -9.1150 287° West 443 510 36,000  Level FlightAware ADS-B
Tue 11:04:19 AM 55.1550 -9.2530 287° West 443 510 36,000  Level FlightAware ADS-B
Tue 11:05:04 AM 55.1820 -9.4080 287° West 443 510 36,000  Level FlightAware ADS-B
Tue 11:05:44 AM 55.2060 -9.5440 287° West 446 513 36,000  Level FlightAware ADS-B
Tue 11:06:39 AM 55.2380 -9.7330 287° West 443 510 36,000  Level FlightAware ADS-B
Tue 11:07:19 AM 55.2610 -9.8730 286° West 440 506 36,000  Level FlightAware ADS-B
Tue 11:08:14 AM 55.2920 -10.0570 287° West 440 506 36,000  Level FlightAware ADS-B
Tue 11:09:04 AM 55.3210 -10.2300 286° West 440 506 36,000  Level FlightAware ADS-B
Tue 11:09:39 AM 55.3400 -10.3490 286° West 440 506 36,000  Level FlightAware ADS-B
Tue 11:10:24 AM 55.3660 -10.5100 286° West 439 505 36,000 137 Level FlightAware ADS-B
Tue 11:11:50 AM 55.4120 -10.7950 286° West 439 505 36,300 391 Climbing FlightAware ADS-B
Tue 11:12:42 AM 55.4400 -10.9700 286° West 437 503 36,900 424 Climbing FlightAware ADS-B
Tue 11:13:29 AM 55.4680 -11.1470 286° West 442 509 37,000 68 Climbing FlightAware ADS-B
Tue 11:14:10 AM 55.4890 -11.2850 285° West 441 507 37,000  Level FlightAware ADS-B
Tue 11:14:49 AM 55.5100 -11.4230 285° West 443 510 37,000  Level FlightAware ADS-B
Tue 11:15:30 AM 55.5310 -11.5570 286° West 443 510 37,000  Level FlightAware ADS-B
Tue 11:16:15 AM 55.5560 -11.7220 285° West 447 514 37,000  Level FlightAware ADS-B
Tue 11:16:55 AM 55.5760 -11.8570 285° West 444 511 37,000  Level FlightAware ADS-B
Tue 11:17:35 AM 55.5970 -11.9960 285° West 437 503 37,000  Level FlightAware ADS-B
Tue 11:18:35 AM 55.6270 -12.2000 285° West 435 501 37,000  Level FlightAware ADS-B
Tue 11:19:16 AM 55.6470 -12.3370 285° West 433 498 37,000  Level FlightAware ADS-B
Tue 11:19:56 AM 55.6690 -12.4900 284° West 432 497 37,000  Level FlightAware ADS-B
Tue 11:20:43 AM 55.6910 -12.6470 284° West 431 496 37,000  Level FlightAware ADS-B
Tue 11:21:51 AM 55.7240 -12.8810 284° West 435 501 37,000  Level FlightAware ADS-B
Tue 11:22:36 AM 55.7460 -13.0400 284° West 432 497 37,000  Level FlightAware ADS-B
Tue 11:23:17 AM 55.7660 -13.1810 284° West 431 496 37,000  Level FlightAware ADS-B
Tue 11:24:13 AM 55.7890 -13.3550 283° West 430 495 37,000  Level FlightAware ADS-B
Tue 11:25:05 AM 55.8130 -13.5320 284° West 432 497 37,000  Level FlightAware ADS-B
Tue 11:25:43 AM 55.8270 -13.6440 283° West 432 497 37,000  Level FlightAware ADS-B
Tue 11:26:19 AM 55.8410 -13.7500 283° West 432 497 37,000  Level FlightAware ADS-B
Tue 11:27:07 AM 55.8590 -13.8910 283° West 432 497 37,000  Level FlightAware ADS-B
Tue 11:27:44 AM 55.8730 -14.0000 283° West 432 497 37,000  Level FlightAware ADS-B
Tue 11:28:20 AM 55.8870 -14.1070 283° West 432 497 37,000  Level FlightAware ADS-B
Tue 11:29:08 AM 55.9060 -14.2480 284° West 432 497 37,000  Level FlightAware ADS-B
Tue 11:29:44 AM 55.9190 -14.3550 282° West 432 497 37,000  Level FlightAware ADS-B
Tue 11:30:32 AM 55.9380 -14.4970 283° West 432 497 37,000  Level FlightAware ADS-B
Tue 11:30:57 AM 55.9470 -14.5700 282° West 432 497 37,000  Level FlightAware ADS-B
Tue 11:31:43 AM 55.9650 -14.7060 283° West 432 497 37,000  Level FlightAware ADS-B
Tue 11:32:20 AM 55.9790 -14.8160 283° West 432 497 37,000  Level FlightAware ADS-B
Tue 11:32:57 AM 55.9930 -14.9250 283° West 432 497 37,000  Level FlightAware ADS-B
Tue 11:33:45 AM 56.0110 -15.0670 283° West 432 497 37,000  Level FlightAware ADS-B
Tue 11:36:00 AM 56.0308 -15.5532 274° West  Level Estimated
Tue 11:37:00 AM 56.0389 -15.7694 274° West  Level Estimated
Tue 11:38:00 AM 56.0467 -15.9858 274° West  Level Estimated
Tue 11:39:00 AM 56.0542 -16.2022 274° West  Level Estimated
Tue 11:40:00 AM 56.0612 -16.4187 273° West  Level Estimated
Tue 11:41:00 AM 56.0679 -16.6352 273° West  Level Estimated
Tue 11:42:00 AM 56.0741 -16.8519 273° West  Level Estimated
Tue 11:43:00 AM 56.0800 -17.0686 273° West  Level Estimated
Tue 11:44:00 AM 56.0856 -17.2854 273° West  Level Estimated
Tue 11:45:00 AM 56.0907 -17.5022 273° West  Level Estimated
Tue 11:46:00 AM 56.0955 -17.7191 272° West  Level Estimated
Tue 11:47:00 AM 56.0998 -17.9360 272° West  Level Estimated
Tue 11:48:00 AM 56.1038 -18.1530 272° West  Level Estimated
Tue 11:49:00 AM 56.1075 -18.3701 272° West  Level Estimated
Tue 11:50:00 AM 56.1107 -18.5871 272° West  Level Estimated
Tue 11:51:00 AM 56.1136 -18.8042 271° West  Level Estimated
Tue 11:52:00 AM 56.1160 -19.0214 271° West  Level Estimated
Tue 11:53:00 AM 56.1181 -19.2385 271° West  Level Estimated
Tue 11:54:00 AM 56.1199 -19.4557 271° West  Level Estimated
Tue 11:55:00 AM 56.1212 -19.6729 271° West  Level Estimated
Tue 11:56:00 AM 56.1221 -19.8901 271° West  Level Estimated
Tue 11:57:00 AM 56.1227 -20.1073 270° West  Level Estimated
Tue 11:58:00 AM 56.1229 -20.3246 270° West  Level Estimated
Tue 11:58:00 AM 57.0000 -20.0000 274° West 408 470 37,000  Level ETMS Enhanced Traffic Management System
Tue 11:59:00 AM 56.1227 -20.5418 270° West  Level Estimated
Tue 12:00:00 PM 56.1221 -20.7590 270° West  Level Estimated
Tue 12:01:00 PM 56.1212 -20.9762 270° West  Level Estimated
Tue 12:02:00 PM 56.1199 -21.1934 269° West  Level Estimated
Tue 12:03:00 PM 56.1181 -21.4106 269° West  Level Estimated
Tue 12:04:00 PM 57.0436 -21.2471 273° West 408 470 37,000  Level FlightAware Transoceanic
Tue 12:05:00 PM 57.0496 -21.4552 273° West 408 470 37,000  Level FlightAware Transoceanic
Tue 12:06:00 PM 57.0554 -21.6633 273° West 408 470 37,000  Level FlightAware Transoceanic
Tue 12:07:00 PM 57.0607 -21.8716 273° West 408 470 37,000  Level FlightAware Transoceanic
Tue 12:08:00 PM 57.0657 -22.0799 272° West 408 470 37,000  Level FlightAware Transoceanic
Tue 12:09:00 PM 57.0704 -22.2882 272° West 408 470 37,000  Level FlightAware Transoceanic
Tue 12:10:00 PM 57.0747 -22.4966 272° West 408 470 37,000  Level FlightAware Transoceanic
Tue 12:11:00 PM 57.0787 -22.7051 272° West 408 470 37,000  Level FlightAware Transoceanic
Tue 12:12:00 PM 57.0824 -22.9136 272° West 408 470 37,000  Level FlightAware Transoceanic
Tue 12:13:00 PM 57.0857 -23.1221 272° West 408 470 37,000  Level FlightAware Transoceanic
Tue 12:14:00 PM 57.0886 -23.3307 271° West 408 470 37,000  Level FlightAware Transoceanic
Tue 12:15:00 PM 57.0912 -23.5393 271° West 408 470 37,000  Level FlightAware Transoceanic
Tue 12:16:00 PM 57.0935 -23.7479 271° West 408 470 37,000  Level FlightAware Transoceanic
Tue 12:17:00 PM 57.0954 -23.9566 271° West 408 470 37,000  Level FlightAware Transoceanic
Tue 12:18:00 PM 57.0969 -24.1652 271° West 408 470 37,000  Level FlightAware Transoceanic
Tue 12:19:00 PM 57.0981 -24.3739 271° West 408 470 37,000  Level FlightAware Transoceanic
Tue 12:20:00 PM 57.0990 -24.5826 270° West 408 470 37,000  Level FlightAware Transoceanic
Tue 12:21:00 PM 57.0995 -24.7913 270° West 408 470 37,000  Level FlightAware Transoceanic
Tue 12:22:00 PM 57.0997 -25.0000 270° West 408 470 37,000  Level FlightAware Transoceanic
Tue 12:23:00 PM 57.0995 -25.2087 270° West 408 470 37,000  Level FlightAware Transoceanic
Tue 12:24:00 PM 57.0990 -25.4174 270° West 408 470 37,000  Level FlightAware Transoceanic
Tue 12:25:00 PM 57.0981 -25.6261 269° West 408 470 37,000  Level FlightAware Transoceanic
Tue 12:26:00 PM 57.0969 -25.8348 269° West 408 470 37,000  Level FlightAware Transoceanic
Tue 12:27:00 PM 57.0954 -26.0434 269° West 408 470 37,000  Level FlightAware Transoceanic
Tue 12:28:00 PM 57.0935 -26.2521 269° West 408 470 37,000  Level FlightAware Transoceanic
Tue 12:29:00 PM 57.0912 -26.4607 269° West 408 470 37,000  Level FlightAware Transoceanic
Tue 12:30:00 PM 57.0886 -26.6693 269° West 408 470 37,000  Level FlightAware Transoceanic
Tue 12:31:00 PM 57.0857 -26.8779 268° West 408 470 37,000  Level FlightAware Transoceanic
Tue 12:32:00 PM 57.0824 -27.0864 268° West 408 470 37,000  Level FlightAware Transoceanic
Tue 12:33:00 PM 57.0787 -27.2949 268° West 408 470 37,000  Level FlightAware Transoceanic
Tue 12:34:00 PM 57.0747 -27.5034 268° West 408 470 37,000  Level FlightAware Transoceanic
Tue 12:35:00 PM 57.0704 -27.7118 268° West 408 470 37,000  Level FlightAware Transoceanic
Tue 12:36:00 PM 57.0657 -27.9201 268° West 408 470 37,000  Level FlightAware Transoceanic
Tue 12:37:00 PM 57.0607 -28.1284 267° West 408 470 37,000  Level FlightAware Transoceanic
Tue 12:38:00 PM 57.0554 -28.3367 267° West 408 470 37,000  Level FlightAware Transoceanic
Tue 12:39:00 PM 57.0496 -28.5448 267° West 408 470 37,000  Level FlightAware Transoceanic
Tue 12:40:00 PM 57.0436 -28.7529 267° West 408 470 37,000  Level FlightAware Transoceanic
Tue 12:41:00 PM 57.0372 -28.9610 267° West 408 470 37,000  Level FlightAware Transoceanic
Tue 12:42:00 PM 57.0304 -29.1689 267° West 408 470 37,000  Level FlightAware Transoceanic
Tue 12:43:00 PM 57.0233 -29.3768 266° West 408 470 37,000  Level FlightAware Transoceanic
Tue 12:44:00 PM 57.0159 -29.5846 266° West 408 470 37,000  Level FlightAware Transoceanic
Tue 12:45:00 PM 57.0081 -29.7924 266° West 408 470 37,000  Level FlightAware Transoceanic
Tue 12:46:00 PM 56.9878 -30.0115 260° West  Level Estimated
Tue 12:47:00 PM 56.9671 -30.2304 260° West  Level Estimated
Tue 12:48:00 PM 56.9460 -30.4491 260° West  Level Estimated
Tue 12:49:00 PM 56.9245 -30.6675 260° West  Level Estimated
Tue 12:50:00 PM 56.9026 -30.8857 260° West  Level Estimated
Tue 12:51:00 PM 56.8804 -31.1036 260° West  Level Estimated
Tue 12:52:00 PM 56.8578 -31.3212 259° West  Level Estimated
Tue 12:53:00 PM 56.8348 -31.5386 259° West  Level Estimated
Tue 12:54:00 PM 56.8114 -31.7557 259° West  Level Estimated
Tue 12:55:00 PM 56.7876 -31.9726 259° West  Level Estimated
Tue 12:56:00 PM 56.7635 -32.1891 259° West  Level Estimated
Tue 12:57:00 PM 56.7390 -32.4054 258° West  Level Estimated
Tue 12:58:00 PM 56.7141 -32.6214 258° West  Level Estimated
Tue 12:59:00 PM 56.6889 -32.8371 258° West  Level Estimated
Tue 01:00:00 PM 56.6633 -33.0525 258° West  Level Estimated
Tue 01:01:00 PM 56.6373 -33.2677 258° West  Level Estimated
Tue 01:02:00 PM 56.6109 -33.4825 258° West  Level Estimated
Tue 01:03:00 PM 56.5842 -33.6970 257° West  Level Estimated
Tue 01:04:00 PM 56.5571 -33.9112 257° West  Level Estimated
Tue 01:05:00 PM 56.5296 -34.1251 257° West  Level Estimated
Tue 01:06:00 PM 56.5018 -34.3387 257° West  Level Estimated
Tue 01:07:00 PM 56.4736 -34.5520 257° West  Level Estimated
Tue 01:08:00 PM 56.4450 -34.7650 256° West  Level Estimated
Tue 01:09:00 PM 56.4161 -34.9776 256° West  Level Estimated
Tue 01:10:00 PM 56.3868 -35.1899 256° West  Level Estimated
Tue 01:11:00 PM 56.3571 -35.4019 256° West  Level Estimated
Tue 01:12:00 PM 56.3271 -35.6136 256° West  Level Estimated
Tue 01:13:00 PM 56.2967 -35.8249 256° West  Level Estimated
Tue 01:14:00 PM 56.2660 -36.0359 255° West  Level Estimated
Tue 01:15:00 PM 56.2349 -36.2465 255° West  Level Estimated
Tue 01:16:00 PM 56.2034 -36.4568 255° West  Level Estimated
Tue 01:17:00 PM 56.1716 -36.6668 255° West  Level Estimated
Tue 01:18:00 PM 56.1395 -36.8764 255° West  Level Estimated
Tue 01:19:00 PM 56.1069 -37.0856 255° West  Level Estimated
Tue 01:20:00 PM 56.0741 -37.2945 254° West  Level Estimated
Tue 01:21:00 PM 56.0409 -37.5031 254° West  Level Estimated
Tue 01:22:00 PM 56.0073 -37.7112 254° West  Level Estimated
Tue 01:23:00 PM 55.9734 -37.9190 254° West  Level Estimated
Tue 01:24:00 PM 55.9391 -38.1265 254° West  Level Estimated
Tue 01:25:00 PM 55.9045 -38.3336 253° West  Level Estimated
Tue 01:26:00 PM 55.8695 -38.5403 253° West  Level Estimated
Tue 01:27:00 PM 55.8342 -38.7466 253° West  Level Estimated
Tue 01:28:00 PM 55.7985 -38.9526 253° West  Level Estimated
Tue 01:29:00 PM 55.7625 -39.1581 253° West  Level Estimated
Tue 01:30:00 PM 55.7262 -39.3633 253° West  Level Estimated
Tue 01:31:00 PM 55.6895 -39.5682 252° West  Level Estimated
Tue 01:32:00 PM 55.6525 -39.7726 252° West  Level Estimated
Tue 01:33:00 PM 55.6151 -39.9766 252° West  Level Estimated
Tue 01:34:00 PM 55.5774 -40.1803 252° West  Level Estimated
Tue 01:35:00 PM 55.5394 -40.3835 252° West  Level Estimated
Tue 01:36:00 PM 55.5010 -40.5864 252° West  Level Estimated
Tue 01:37:00 PM 55.4623 -40.7889 251° West  Level Estimated
Tue 01:38:00 PM 55.4232 -40.9909 251° West  Level Estimated
Tue 01:39:00 PM 55.3839 -41.1926 251° West  Level Estimated
Tue 01:40:00 PM 55.3442 -41.3939 251° West  Level Estimated
Tue 01:41:00 PM 55.3041 -41.5947 251° West  Level Estimated
Tue 01:42:00 PM 55.2637 -41.7952 251° West  Level Estimated
Tue 01:43:00 PM 55.2231 -41.9952 250° West  Level Estimated
Tue 01:44:00 PM 55.1820 -42.1949 250° West  Level Estimated
Tue 01:45:00 PM 55.1407 -42.3941 250° West  Level Estimated
Tue 01:46:00 PM 55.0990 -42.5929 250° West  Level Estimated
Tue 01:47:00 PM 55.0570 -42.7913 250° West  Level Estimated
Tue 01:48:00 PM 55.0147 -42.9892 250° West  Level Estimated
Tue 01:49:00 PM 54.9721 -43.1868 249° West  Level Estimated
Tue 01:50:00 PM 54.9291 -43.3839 249° West  Level Estimated
Tue 01:51:00 PM 54.8859 -43.5806 249° West  Level Estimated
Tue 01:52:00 PM 54.8423 -43.7769 249° West  Level Estimated
Tue 01:53:00 PM 54.7984 -43.9728 249° West  Level Estimated
Tue 01:54:00 PM 54.7541 -44.1682 249° West  Level Estimated
Tue 01:55:00 PM 54.7096 -44.3632 249° West  Level Estimated
Tue 01:56:00 PM 54.6648 -44.5578 248° West  Level Estimated
Tue 01:57:00 PM 54.6196 -44.7520 248° West  Level Estimated
Tue 01:58:00 PM 54.5741 -44.9457 248° West  Level Estimated
Tue 01:59:00 PM 54.5284 -45.1390 248° West  Level Estimated
Tue 02:00:00 PM 54.4823 -45.3318 248° West  Level Estimated
Tue 02:01:00 PM 54.4359 -45.5242 248° West  Level Estimated
Tue 02:02:00 PM 54.3892 -45.7162 247° West  Level Estimated
Tue 02:03:00 PM 54.3422 -45.9077 247° West  Level Estimated
Tue 02:04:00 PM 54.2949 -46.0989 247° West  Level Estimated
Tue 02:05:00 PM 54.2473 -46.2895 247° West  Level Estimated
Tue 02:06:00 PM 54.1994 -46.4797 247° West  Level Estimated
Tue 02:07:00 PM 54.1512 -46.6695 247° West  Level Estimated
Tue 02:08:00 PM 54.1027 -46.8588 246° West  Level Estimated
Tue 02:09:00 PM 54.0539 -47.0477 246° West  Level Estimated
Tue 02:10:00 PM 54.0048 -47.2362 246° West  Level Estimated
Tue 02:11:00 PM 53.9554 -47.4242 246° West  Level Estimated
Tue 02:12:00 PM 53.9057 -47.6118 246° West  Level Estimated
Tue 02:13:00 PM 53.8558 -47.7989 246° West  Level Estimated
Tue 02:14:00 PM 53.8055 -47.9855 246° West  Level Estimated
Tue 02:15:00 PM 53.7550 -48.1717 245° Southwest  Level Estimated
Tue 02:16:00 PM 53.7041 -48.3575 245° Southwest  Level Estimated
Tue 02:17:00 PM 53.6530 -48.5428 245° Southwest  Level Estimated
Tue 02:18:00 PM 53.6016 -48.7277 245° Southwest  Level Estimated
Tue 02:19:00 PM 53.5499 -48.9121 245° Southwest  Level Estimated
Tue 02:20:00 PM 53.4979 -49.0960 245° Southwest  Level Estimated
Tue 02:21:00 PM 53.4456 -49.2795 245° Southwest  Level Estimated
Tue 02:22:00 PM 53.3931 -49.4626 244° Southwest  Level Estimated
Tue 02:23:00 PM 53.3403 -49.6452 244° Southwest  Level Estimated
Tue 02:24:00 PM 53.2872 -49.8274 244° Southwest  Level Estimated
Tue 02:25:00 PM 53.2338 -50.0091 244° Southwest  Level Estimated
Tue 02:26:00 PM 53.1802 -50.1903 244° Southwest  Level Estimated
Tue 02:27:00 PM 53.1263 -50.3711 244° Southwest  Level Estimated
Tue 02:28:00 PM 53.0720 -50.5514 243° Southwest  Level Estimated
Tue 02:29:00 PM 53.0176 -50.7313 243° Southwest  Level Estimated
Tue 02:30:00 PM 52.9628 -50.9108 243° Southwest  Level Estimated
Tue 02:31:00 PM 52.9078 -51.0897 243° Southwest  Level Estimated
Tue 02:32:00 PM 52.8526 -51.2682 243° Southwest  Level Estimated
Tue 02:33:00 PM 52.7970 -51.4463 243° Southwest  Level Estimated
Tue 02:34:00 PM 52.7412 -51.6239 243° Southwest  Level Estimated
Tue 02:34:19 PM 55.1667 -53.7833 242° Southwest 470 541 37,000  Level Gander Center
Tue 02:35:00 PM 52.6851 -51.8011 242° Southwest  Level Estimated
Tue 02:35:19 PM 55.1000 -54.0000 242° Southwest 470 541 37,000  Level Gander Center
Tue 02:36:00 PM 52.6288 -51.9778 242° Southwest  Level Estimated
Tue 02:36:19 PM 55.0500 -54.2167 248° West 470 541 37,000  Level Gander Center
Tue 02:37:00 PM 52.5722 -52.1540 242° Southwest  Level Estimated
Tue 02:37:19 PM 55.0000 -54.4333 248° West 460 529 37,000  Level Gander Center
Tue 02:38:00 PM 52.5153 -52.3298 242° Southwest  Level Estimated
Tue 02:38:19 PM 54.9333 -54.6167 238° Southwest 470 541 37,000  Level Gander Center
Tue 02:39:00 PM 52.4582 -52.5051 242° Southwest  Level Estimated
Tue 02:39:19 PM 54.8833 -54.8333 248° West 460 529 37,000  Level Gander Center
Tue 02:40:19 PM 54.8333 -55.0333 247° West 460 529 37,000  Level Gander Center
Tue 02:41:19 PM 54.7667 -55.2500 242° Southwest 460 529 37,000  Level Gander Center
Tue 02:42:19 PM 54.7333 -55.4333 253° West 460 529 37,000  Level Gander Center
Tue 02:43:19 PM 54.6667 -55.6500 242° Southwest 460 529 37,000  Level Gander Center
Tue 02:44:19 PM 54.6167 -55.8167 243° Southwest 460 529 37,000 200 Level Gander Center
Tue 02:45:19 PM 54.5333 -56.0000 232° Southwest 470 541 37,400 400 Climbing Gander Center
Tue 02:46:19 PM 54.4667 -56.1833 238° Southwest 470 541 37,800 300 Climbing Gander Center
Tue 02:47:19 PM 54.3833 -56.3667 232° Southwest 470 541 38,000 100 Climbing Gander Center
Tue 02:48:19 PM 54.2833 -56.5500 227° Southwest 470 541 38,000  Level Gander Center
Tue 02:49:19 PM 54.2333 -56.7333 245° Southwest 470 541 38,000  Level Gander Center
Tue 02:50:19 PM 54.1333 -56.9167 227° Southwest 470 541 38,000  Level Gander Center
Tue 02:50:51 PM 54.1000 -57.0000 236° Southwest 470 541 38,000  Level Moncton Center
Tue 02:51:51 PM 54.0167 -57.2000 235° Southwest 470 541 38,000  Level Moncton Center
Tue 02:52:51 PM 53.9500 -57.3833 238° Southwest 470 541 38,000  Level Moncton Center
Tue 02:53:51 PM 53.8667 -57.5667 232° Southwest 470 541 38,000  Level Moncton Center
Tue 02:54:51 PM 53.8000 -57.7167 233° Southwest 460 529 38,000  Level Moncton Center
Tue 02:55:51 PM 53.7167 -57.9000 233° Southwest 460 529 38,000  Level Moncton Center
Tue 02:56:51 PM 53.6333 -58.0833 233° Southwest 460 529 38,000  Level Moncton Center
Tue 02:57:51 PM 53.5500 -58.2667 233° Southwest 470 541 38,000  Level Moncton Center
Tue 02:58:51 PM 53.4833 -58.4167 233° Southwest 460 529 38,000  Level Moncton Center
Tue 02:59:51 PM 53.4000 -58.5833 230° Southwest 460 529 38,000  Level Moncton Center
Tue 03:00:51 PM 53.3333 -58.7667 239° Southwest 470 541 38,000  Level Moncton Center
Tue 03:01:51 PM 53.2500 -58.9500 233° Southwest 470 541 38,000  Level Moncton Center
Tue 03:02:51 PM 53.1833 -59.1167 236° Southwest 470 541 38,000  Level Moncton Center
Tue 03:03:51 PM 53.1000 -59.3000 233° Southwest 470 541 38,000  Level Moncton Center
Tue 03:04:51 PM 53.0167 -59.4500 227° Southwest 470 541 38,000  Level Moncton Center
Tue 03:05:51 PM 52.9333 -59.6167 230° Southwest 470 541 38,000  Level Moncton Center
Tue 03:06:51 PM 52.8500 -59.8000 233° Southwest 470 541 38,000  Level Moncton Center
Tue 03:07:51 PM 52.7667 -59.9667 230° Southwest 470 541 38,000  Level Moncton Center
Tue 03:08:51 PM 52.7000 -60.1500 239° Southwest 470 541 38,000  Level Moncton Center
Tue 03:09:51 PM 52.6167 -60.3167 231° Southwest 470 541 38,000  Level Moncton Center
Tue 03:10:51 PM 52.5333 -60.4833 231° Southwest 470 541 38,000  Level Moncton Center
Tue 03:11:51 PM 52.4667 -60.6333 234° Southwest 470 541 38,000  Level Moncton Center
Tue 03:12:51 PM 52.3667 -60.8333 231° Southwest 470 541 38,000  Level Moncton Center
Tue 03:13:51 PM 52.3000 -60.9833 234° Southwest 470 541 38,000  Level Moncton Center
Tue 03:14:51 PM 52.2167 -61.1500 231° Southwest 470 541 38,000  Level Moncton Center
Tue 03:15:51 PM 52.1333 -61.3167 231° Southwest 470 541 38,000  Level Moncton Center
Tue 03:16:51 PM 52.0500 -61.4833 231° Southwest 470 541 38,000  Level Moncton Center
Tue 03:17:51 PM 51.9667 -61.6500 231° Southwest 460 529 38,000  Level Moncton Center
Tue 03:18:51 PM 51.8833 -61.8000 228° Southwest 460 529 38,000  Level Moncton Center
Tue 03:19:51 PM 51.8167 -61.9667 237° Southwest 460 529 38,000  Level Moncton Center
Tue 03:20:51 PM 51.7333 -62.1333 231° Southwest 460 529 38,000  Level Moncton Center
Tue 03:21:51 PM 51.6500 -62.3000 231° Southwest 460 529 38,000  Level Moncton Center
Tue 03:22:51 PM 51.5667 -62.4667 231° Southwest 460 529 38,000  Level Moncton Center
Tue 03:23:51 PM 51.4833 -62.6167 228° Southwest 460 529 38,000  Level Moncton Center
Tue 03:24:51 PM 51.4000 -62.7667 228° Southwest 460 529 38,000  Level Moncton Center
Tue 03:25:51 PM 51.3167 -62.9167 228° Southwest 460 529 38,000  Level Moncton Center
Tue 03:26:51 PM 51.2333 -63.0833 231° Southwest 460 529 38,000  Level Moncton Center
Tue 03:27:51 PM 51.1667 -63.2500 238° Southwest 450 518 38,000  Level Moncton Center
Tue 03:28:51 PM 51.0833 -63.3833 225° Southwest 450 518 38,000  Level Moncton Center
Tue 03:29:51 PM 51.0000 -63.5500 232° Southwest 460 529 38,000  Level Moncton Center
Tue 03:30:51 PM 50.9167 -63.7000 229° Southwest 460 529 38,000  Level Moncton Center
Tue 03:31:51 PM 50.8167 -63.8667 227° Southwest 470 541 38,000  Level Moncton Center
Tue 03:32:51 PM 50.7500 -64.0333 238° Southwest 470 541 38,000  Level Moncton Center
Tue 03:33:51 PM 50.6667 -64.1667 225° Southwest 460 529 38,000  Level Moncton Center
Tue 03:34:51 PM 50.5667 -64.3167 224° Southwest 460 529 38,000  Level Moncton Center
Tue 03:35:51 PM 50.5000 -64.4833 238° Southwest 460 529 38,000  Level Moncton Center
Tue 03:36:51 PM 50.4000 -64.6333 224° Southwest 460 529 38,000  Level Moncton Center
Tue 03:37:32 PM 50.3333 -64.6833 206° Southwest 450 518 38,000  Level Montreal Center
Tue 03:38:32 PM 50.2500 -64.8333 229° Southwest 450 518 38,000  Level Montreal Center
Tue 03:39:32 PM 50.1833 -64.9833 235° Southwest 440 506 38,000  Level Montreal Center
Tue 03:40:19 PM 50.1000 -65.1333 229° Southwest 440 506 38,000  Level Gander Center
Tue 03:41:19 PM 50.0333 -65.2667 232° Southwest 440 506 38,000  Level Gander Center
Tue 03:42:19 PM 49.9500 -65.4167 229° Southwest 450 518 38,000  Level Gander Center
Tue 03:43:19 PM 49.8667 -65.5667 229° Southwest 450 518 38,000  Level Gander Center
Tue 03:44:19 PM 49.7833 -65.6833 222° Southwest 440 506 38,000  Level Gander Center
Tue 03:44:51 PM 49.7333 -65.7667 227° Southwest 440 506 38,000  Level Moncton Center
Tue 03:45:32 PM 49.6833 -65.8333 221° Southwest 440 506 38,000  Level Montreal Center
Tue 03:46:32 PM 49.6000 -65.9833 229° Southwest 430 495 38,000  Level Montreal Center
Tue 03:47:19 PM 49.5333 -66.1000 229° Southwest 420 483 38,000  Level Gander Center
Tue 03:47:51 PM 49.5000 -66.1833 238° Southwest 420 483 38,000  Level Moncton Center
Tue 03:48:51 PM 49.4333 -66.3000 229° Southwest 410 472 38,000  Level Moncton Center
Tue 03:49:51 PM 49.3333 -66.4333 221° Southwest 420 483 38,000  Level Moncton Center
Tue 03:50:51 PM 49.2667 -66.5833 236° Southwest 420 483 38,000  Level Moncton Center
Tue 03:51:51 PM 49.1833 -66.7000 222° Southwest 420 483 38,000  Level Moncton Center
Tue 03:52:51 PM 49.1000 -66.8500 230° Southwest 420 483 38,000  Level Moncton Center
Tue 03:53:51 PM 49.0333 -66.9833 233° Southwest 420 483 38,000  Level Moncton Center
Tue 03:54:51 PM 48.9333 -67.1000 217° Southwest 420 483 38,000  Level Moncton Center
Tue 03:55:32 PM 48.8833 -67.1667 221° Southwest 420 483 38,000  Level Montreal Center
Tue 03:56:32 PM 48.8167 -67.2833 229° Southwest 420 483 38,000  Level Montreal Center
Tue 03:57:32 PM 48.7167 -67.4167 221° Southwest 420 483 38,000  Level Montreal Center
Tue 03:58:32 PM 48.6500 -67.5333 229° Southwest 430 495 38,000  Level Montreal Center
Tue 03:59:32 PM 48.5500 -67.6833 225° Southwest 430 495 38,000  Level Montreal Center
Tue 04:05:17 PM 48.0830 -68.4750 225° Southwest 450 518 38,000  Level FlightAware ADS-B
Tue 04:05:44 PM 48.0400 -68.5420 226° Southwest 450 518 38,000  Level FlightAware ADS-B
Tue 04:06:34 PM 47.9700 -68.6480 225° Southwest 449 517 38,000  Level FlightAware ADS-B
Tue 04:07:19 PM 47.8990 -68.7550 225° Southwest 451 519 38,000  Level FlightAware ADS-B
Tue 04:08:04 PM 47.8360 -68.8520 226° Southwest 454 522 38,000  Level FlightAware ADS-B
Tue 04:08:44 PM 47.7810 -68.9340 225° Southwest 455 524 38,000  Level FlightAware ADS-B
Tue 04:09:24 PM 47.7170 -69.0190 222° Southwest 466 536 38,000  Level FlightAware ADS-B
Tue 04:10:08 PM 47.6390 -69.0980 214° Southwest 471 542 38,000  Level FlightAware ADS-B
Tue 04:11:04 PM 47.5980 -69.1490 220° Southwest 469 540 38,000  Level FlightAware ADS-B
Tue 04:11:40 PM 47.4820 -69.2730 216° Southwest 469 540 38,000  Level FlightAware ADS-B
Tue 04:12:36 PM 47.3790 -69.3820 216° Southwest 469 540 38,000  Level FlightAware ADS-B
Tue 04:13:29 PM 47.2840 -69.4820 216° Southwest 469 540 38,000  Level FlightAware ADS-B
Tue 04:14:15 PM 47.2030 -69.5670 215° Southwest 466 536 38,000  Level FlightAware ADS-B
Tue 04:15:14 PM 47.1020 -69.6730 216° Southwest 463 533 38,000  Level FlightAware ADS-B
Tue 04:15:54 PM 47.0300 -69.7480 215° Southwest 463 533 38,000  Level FlightAware ADS-B
Tue 04:16:29 PM 46.9670 -69.8130 215° Southwest 464 534 38,000  Level FlightAware ADS-B
Tue 04:17:09 PM 46.8970 -69.8850 215° Southwest 467 537 38,000  Level FlightAware ADS-B
Tue 04:17:49 PM 46.8290 -69.9550 215° Southwest 467 537 38,000  Level FlightAware ADS-B
Tue 04:18:33 PM 46.7480 -70.0390 215° Southwest 466 536 38,000  Level FlightAware ADS-B
Tue 04:19:15 PM 46.6770 -70.1120 215° Southwest 468 539 38,000  Level FlightAware ADS-B
Tue 04:19:59 PM 46.5980 -70.1930 215° Southwest 470 541 38,000  Level FlightAware ADS-B
Tue 04:20:38 PM 46.5270 -70.2650 215° Southwest 473 544 38,000  Level FlightAware ADS-B
Tue 04:21:19 PM 46.4530 -70.3400 215° Southwest 473 544 38,000  Level FlightAware ADS-B
Tue 04:21:54 PM 46.3960 -70.3960 214° Southwest 473 544 38,000  Level FlightAware ADS-B
Tue 04:22:29 PM 46.3290 -70.4650 215° Southwest 470 541 38,000  Level FlightAware ADS-B
Tue 04:23:09 PM 46.2570 -70.5370 215° Southwest 469 540 38,000  Level FlightAware ADS-B
Tue 04:23:39 PM 46.2020 -70.5920 215° Southwest 469 540 38,000  Level FlightAware ADS-B
Tue 04:24:24 PM 46.1300 -70.6640 215° Southwest 470 541 38,000  Level FlightAware ADS-B
Tue 04:25:10 PM 46.0470 -70.7470 215° Southwest 472 543 38,000  Level FlightAware ADS-B
Tue 04:25:38 PM 45.9890 -70.8040 214° Southwest 472 543 38,000  Level FlightAware ADS-B
Tue 04:26:24 PM 45.9070 -70.8850 215° Southwest 472 543 38,000  Level FlightAware ADS-B
Tue 04:27:08 PM 45.8280 -70.9630 215° Southwest 470 541 38,000  Level FlightAware ADS-B
Tue 04:27:49 PM 45.7570 -71.0330 215° Southwest 469 540 38,000  Level FlightAware ADS-B
Tue 04:28:29 PM 45.6880 -71.1010 215° Southwest 466 536 38,000  Level FlightAware ADS-B
Tue 04:29:08 PM 45.6180 -71.1690 214° Southwest 464 534 38,000  Level FlightAware ADS-B
Tue 04:29:50 PM 45.5400 -71.2450 214° Southwest 466 536 38,000  Level FlightAware ADS-B
Tue 04:30:28 PM 45.4710 -71.3110 214° Southwest 467 537 38,000  Level FlightAware ADS-B
Tue 04:31:13 PM 45.3900 -71.3890 214° Southwest 468 539 38,000  Level FlightAware ADS-B
Tue 04:32:00 PM 45.3100 -71.4670 214° Southwest 470 541 38,000  Level FlightAware ADS-B
Tue 04:32:40 PM 45.2360 -71.5370 214° Southwest 465 535 38,000  Level FlightAware ADS-B
Tue 04:33:25 PM 45.1550 -71.6150 214° Southwest 471 542 38,000  Level FlightAware ADS-B
Tue 04:34:05 PM 45.0850 -71.6820 214° Southwest 469 540 38,000  Level FlightAware ADS-B
Tue 04:34:40 PM 45.0210 -71.7430 214° Southwest 470 541 38,000  Level FlightAware ADS-B
Tue 04:35:25 PM 44.9380 -71.8220 214° Southwest 464 534 38,000  Level FlightAware ADS-B
Tue 04:36:05 PM 44.8660 -71.8890 213° Southwest 464 534 38,000  Level FlightAware ADS-B
Tue 04:36:50 PM 44.7840 -71.9670 214° Southwest 463 533 38,000  Level FlightAware ADS-B
Tue 04:37:25 PM 44.7210 -72.0260 214° Southwest 469 540 38,000  Level FlightAware ADS-B
Tue 04:38:10 PM 44.6400 -72.1020 214° Southwest 469 540 38,000  Level FlightAware ADS-B
Tue 04:38:54 PM 44.5590 -72.1770 213° Southwest 468 539 38,000  Level FlightAware ADS-B
Tue 04:39:27 PM 44.5000 -72.2320 214° Southwest 469 540 38,000  Level FlightAware ADS-B
Tue 04:40:06 PM 44.4290 -72.2990 214° Southwest 471 542 38,000  Level FlightAware ADS-B
Tue 04:40:52 PM 44.3450 -72.3760 213° Southwest 473 544 38,000  Level FlightAware ADS-B
Tue 04:41:36 PM 44.2650 -72.4500 214° Southwest 473 544 38,000  Level FlightAware ADS-B
Tue 04:42:16 PM 44.1930 -72.5160 213° Southwest 474 545 38,000  Level FlightAware ADS-B
Tue 04:42:59 PM 44.1140 -72.5880 213° Southwest 475 547 38,000  Level FlightAware ADS-B
Tue 04:43:39 PM 44.0440 -72.6520 213° Southwest 473 544 38,000  Level FlightAware ADS-B
Tue 04:44:20 PM 43.9660 -72.7230 213° Southwest 472 543 38,000  Level FlightAware ADS-B
Tue 04:44:57 PM 43.8980 -72.7840 213° Southwest 473 544 38,000  Level FlightAware ADS-B
Tue 04:45:38 PM 43.8230 -72.8530 214° Southwest 474 545 38,000  Level FlightAware ADS-B
Tue 04:46:15 PM 43.7540 -72.9150 213° Southwest 475 547 38,000  Level FlightAware ADS-B
Tue 04:47:03 PM 43.6650 -72.9940 213° Southwest 476 548 38,000  Level FlightAware ADS-B
Tue 04:47:45 PM 43.5880 -73.0640 213° Southwest 474 545 38,000  Level FlightAware ADS-B
Tue 04:48:27 PM 43.5110 -73.1320 213° Southwest 476 548 38,000  Level FlightAware ADS-B
Tue 04:49:11 PM 43.4300 -73.2040 213° Southwest 477 549 38,000  Level FlightAware ADS-B
Tue 04:50:00 PM 43.3420 -73.2830 213° Southwest 476 548 38,000  Level FlightAware ADS-B
Tue 04:50:46 PM 43.2590 -73.3560 213° Southwest 476 548 38,000  Level FlightAware ADS-B
Tue 04:51:22 PM 43.2020 -73.4050 212° Southwest 476 548 38,000  Level FlightAware ADS-B
Tue 04:52:11 PM 43.1270 -73.4730 214° Southwest 478 550 38,000  Level FlightAware ADS-B
Tue 04:52:53 PM 43.0310 -73.5560 212° Southwest 476 548 38,000  Level FlightAware ADS-B
Tue 04:53:26 PM 42.9580 -73.6200 213° Southwest 476 548 38,000  Level FlightAware ADS-B
Tue 04:54:11 PM 42.8770 -73.6910 213° Southwest 474 545 38,000  Level FlightAware ADS-B
Tue 04:55:05 PM 42.7760 -73.7760 212° Southwest 474 545 38,000  Level FlightAware ADS-B
Tue 04:56:00 PM 42.6630 -73.8370 202° Southwest 477 549 38,000  Level FlightAware ADS-B
Tue 04:56:44 PM 42.5700 -73.8810 199° South 479 551 38,000  Level FlightAware ADS-B
Tue 04:57:26 PM 42.4820 -73.9220 199° South 479 551 38,000  Level FlightAware ADS-B
Tue 04:58:08 PM 42.3930 -73.9620 198° South 477 549 38,000  Level FlightAware ADS-B
Tue 04:58:48 PM 42.3100 -73.9990 198° South 476 548 38,000  Level FlightAware ADS-B
Tue 04:59:26 PM 42.2300 -74.0230 193° South 478 550 38,000  Level FlightAware ADS-B
Tue 04:59:44 PM 42.1885 -74.0309 188° South 479 551 38,000  Level FlightAware ADS-B
Tue 04:59:56 PM 42.1612 -74.0339 185° South 480 552 38,000  Level FlightAware ADS-B
Tue 05:00:29 PM 42.0990 -74.0370 182° South 480 552 38,000  Level FlightAware ADS-B
Tue 05:01:01 PM 42.0202 -74.0599 192° South 476 548 38,000  Level FlightAware ADS-B
Tue 05:01:31 PM 41.9581 -74.0906 200° South 472 543 38,000  Level FlightAware ADS-B
Tue 05:02:04 PM 41.8907 -74.1232 200° South 471 542 38,000  Level FlightAware ADS-B
Tue 05:02:34 PM 41.8283 -74.1532 200° South 470 541 38,000  Level FlightAware ADS-B
Tue 05:03:09 PM 41.7575 -74.1873 200° South 472 543 38,000  Level FlightAware ADS-B
Tue 05:03:42 PM 41.6904 -74.2195 200° South 472 543 38,000  Level FlightAware ADS-B
Tue 05:04:12 PM 41.6286 -74.2491 200° South 472 543 38,000  Level FlightAware ADS-B
Tue 05:04:45 PM 41.5596 -74.2821 200° South 471 542 38,000  Level FlightAware ADS-B
Tue 05:05:15 PM 41.4983 -74.3114 200° South 472 543 38,000  Level FlightAware ADS-B
Tue 05:05:46 PM 41.4348 -74.3416 200° South 472 543 38,000 -1,048 Level FlightAware ADS-B
Tue 05:06:18 PM 41.3709 -74.3721 200° South 466 536 36,900 -3,333 Descending FlightAware ADS-B
Tue 05:06:49 PM 41.3064 -74.4027 200° South 467 537 34,500 -4,154 Descending FlightAware ADS-B
Tue 05:07:23 PM 41.2388 -74.4346 200° South 460 529 32,400 -2,954 Descending FlightAware ADS-B
Tue 05:07:54 PM 41.1761 -74.4642 200° South 454 522 31,300 -1,810 Descending FlightAware ADS-B
Tue 05:08:26 PM 41.1145 -74.4932 200° South 446 513 30,500 -1,377 Descending FlightAware ADS-B
Tue 05:08:55 PM 41.0597 -74.5238 203° Southwest 431 496 29,900 -1,297 Descending FlightAware ADS-B
Tue 05:09:03 PM 41.0454 -74.5336 207° Southwest 428 493 29,700 -2,000 Descending FlightAware ADS-B
Tue 05:09:25 PM 41.0079 -74.5631 211° Southwest 425 489 28,900 -2,049 Descending FlightAware ADS-B
Tue 05:09:44 PM 40.9777 -74.5918 216° Southwest 422 486 28,300 -1,286 Descending FlightAware ADS-B
Tue 05:10:07 PM 40.9438 -74.6301 220° Southwest 418 481 28,000 -750 Descending FlightAware ADS-B
Tue 05:10:08 PM 40.9423 -74.6320 224° Southwest 418 481 28,000  Level FlightAware ADS-B
Tue 05:10:21 PM 40.9259 -74.6533 224° Southwest 416 479 28,000  Level FlightAware ADS-B
Tue 05:10:43 PM 40.8972 -74.6976 229° Southwest 415 478 28,000  Level FlightAware ADS-B
Tue 05:11:14 PM 40.8663 -74.7626 238° Southwest 417 480 28,000  Level FlightAware ADS-B
Tue 05:11:44 PM 40.8352 -74.8279 238° Southwest 418 481 28,000  Level FlightAware ADS-B
Tue 05:12:14 PM 40.8040 -74.8934 238° Southwest 419 482 28,000  Level FlightAware ADS-B
Tue 05:12:45 PM 40.7727 -74.9586 238° Southwest 418 481 28,000  Level FlightAware ADS-B
Tue 05:13:15 PM 40.7407 -75.0251 238° Southwest 418 481 28,000  Level FlightAware ADS-B
Tue 05:13:46 PM 40.7092 -75.0906 238° Southwest 418 481 28,000 -97 Level FlightAware ADS-B
Tue 05:14:17 PM 40.6777 -75.1558 238° Southwest 416 479 27,900 -667 Descending FlightAware ADS-B
Tue 05:14:49 PM 40.6442 -75.2254 238° Southwest 415 478 27,300 -1,048 Descending FlightAware ADS-B
Tue 05:15:20 PM 40.6127 -75.2905 238° Southwest 411 473 26,800 -984 Descending FlightAware ADS-B
Tue 05:15:50 PM 40.5821 -75.3535 237° Southwest 408 470 26,300 -1,000 Descending FlightAware ADS-B
Tue 05:16:20 PM 40.5516 -75.4165 238° Southwest 402 463 25,800 -984 Descending FlightAware ADS-B
Tue 05:16:51 PM 40.5209 -75.4794 237° Southwest 404 465 25,300 -984 Descending FlightAware ADS-B
Tue 05:17:21 PM 40.4904 -75.5421 237° Southwest 405 466 24,800 -1,000 Descending FlightAware ADS-B
Tue 05:17:51 PM 40.4601 -75.6040 237° Southwest 408 470 24,300 -1,180 Descending FlightAware ADS-B
Tue 05:18:22 PM 40.4291 -75.6673 237° Southwest 404 465 23,600 -1,548 Descending FlightAware ADS-B
Tue 05:18:53 PM 40.3976 -75.7314 237° Southwest 400 460 22,700 -1,742 Descending FlightAware ADS-B
Tue 05:19:24 PM 40.3670 -75.7936 237° Southwest 396 456 21,800 -1,662 Descending FlightAware ADS-B
Tue 05:19:58 PM 40.3336 -75.8615 237° Southwest 392 451 20,900 -1,569 Descending FlightAware ADS-B
Tue 05:20:29 PM 40.3024 -75.9245 237° Southwest 388 447 20,100 -871 Descending FlightAware ADS-B
Tue 05:21:00 PM 40.2733 -75.9834 237° Southwest 385 443 20,000 -98 Descending FlightAware ADS-B
Tue 05:21:30 PM 40.2440 -76.0424 237° Southwest 386 444 20,000 -338 Level FlightAware ADS-B
Tue 05:22:11 PM 40.2041 -76.1228 237° Southwest 386 444 19,600 -930 Descending FlightAware ADS-B
Tue 05:22:41 PM 40.1751 -76.1810 237° Southwest 379 436 18,900 -1,500 Descending FlightAware ADS-B
Tue 05:23:11 PM 40.1469 -76.2375 237° Southwest 372 428 18,100 -1,600 Descending FlightAware ADS-B
Tue 05:23:41 PM 40.1186 -76.2942 237° Southwest 369 425 17,300 -1,300 Descending FlightAware ADS-B
Tue 05:24:11 PM 40.0919 -76.3503 238° Southwest 363 418 16,800 -1,000 Descending FlightAware ADS-B
Tue 05:24:47 PM 40.0619 -76.4170 240° Southwest 361 415 16,200 -966 Descending FlightAware ADS-B
Tue 05:25:38 PM 40.0178 -76.5128 239° Southwest 359 413 15,400 -1,024 Descending FlightAware ADS-B
Tue 05:26:09 PM 39.9914 -76.5698 239° Southwest 350 403 14,800 -581 Descending FlightAware ADS-B
Tue 05:26:40 PM 39.9665 -76.6231 239° Southwest 329 379 14,800  Level FlightAware ADS-B
Tue 05:27:28 PM 39.9283 -76.7054 239° Southwest 330 380 14,800  Level FlightAware ADS-B
Tue 05:28:31 PM 39.8790 -76.8109 239° Southwest 330 380 14,800  Level FlightAware ADS-B
Tue 05:29:05 PM 39.8512 -76.8703 239° Southwest 331 381 14,800  Level FlightAware ADS-B
Tue 05:29:37 PM 39.8266 -76.9228 239° Southwest 331 381 14,800  Level FlightAware ADS-B
Tue 05:30:08 PM 39.8014 -76.9764 239° Southwest 332 382 14,800 -91 Level FlightAware ADS-B
Tue 05:30:43 PM 39.7738 -77.0351 239° Southwest 332 382 14,700 -831 Descending FlightAware ADS-B
Tue 05:31:13 PM 39.7497 -77.0862 238° Southwest 328 377 13,900 -1,583 Descending FlightAware ADS-B
Tue 05:33:26 PM 39.6590 -77.2770 238° Southwest 312 359 10,400 -1,141 Descending FlightAware ADS-B
Tue 05:34:17 PM 39.6270 -77.3470 239° Southwest 312 359 10,400 -1,098 Level FlightAware ADS-B
Tue 05:34:48 PM 39.5610 -77.3440 178° South 310 357 8,900 -1,098 Descending FlightAware ADS-B
Tue 05:35:39 PM 39.4990 -77.3510 185° South 310 357 8,900 -1,325 Level FlightAware ADS-B
Tue 05:36:05 PM 39.4540 -77.3580 187° South 301 346 7,200 -2,400 Descending FlightAware ADS-B
Tue 05:36:29 PM 39.4110 -77.3630 185° South 294 338 6,900 -1,607 Descending FlightAware ADS-B
Tue 05:37:01 PM 39.3590 -77.3620 179° South 292 336 5,700 -1,645 Descending FlightAware ADS-B
Tue 05:37:31 PM 39.3210 -77.3610 179° South 288 331 5,200 -873 Descending FlightAware ADS-B
Tue 05:37:56 PM 39.2850 -77.3600 179° South 290 334 4,900 -764 Descending FlightAware ADS-B
Tue 05:38:26 PM 39.2450 -77.3590 179° South 287 330 4,500 -1,000 Descending FlightAware ADS-B
Tue 05:38:56 PM 39.2070 -77.3590 180° South 286 329 3,900 -764 Descending FlightAware ADS-B
Tue 05:39:21 PM 39.1700 -77.3580 179° South 282 325 3,800 -133 Descending FlightAware ADS-B
Tue 05:39:41 PM 39.1450 -77.3570 178° South 283 326 3,800  Level FlightAware ADS-B
Tue 05:40:11 PM 39.1050 -77.3570 180° South 284 327 3,800  Level FlightAware ADS-B
Tue 05:40:21 PM 39.0920 -77.3570 180° South 283 326 3,800  Level FlightAware ADS-B
Tue 05:40:51 PM 39.0530 -77.3570 180° South 282 325 3,800  Level FlightAware ADS-B
Tue 05:41:07 PM 39.0330 -77.3570 180° South 283 326 3,800  Level FlightAware ADS-B
Tue 05:41:41 PM 38.9870 -77.3570 180° South 282 325 3,800  Level FlightAware ADS-B
Tue 05:42:21 PM 38.9380 -77.3570 180° South 267 307 3,800  Level FlightAware ADS-B

Login

Don't have an account? Register now (free) for customized features, flight alerts, and more!